sensor_id;sensor_type;location;lat;lon;timestamp;P1;durP1;ratioP1;P2;durP2;ratioP2
23044;SDS011;11690;51.716;23.066;2022-08-14T00:01:34;23.13;;;16.95;;
23044;SDS011;11690;51.716;23.066;2022-08-14T00:04:02;23.35;;;17.20;;
23044;SDS011;11690;51.716;23.066;2022-08-14T00:06:49;22.55;;;15.60;;
23044;SDS011;11690;51.716;23.066;2022-08-14T00:09:16;23.73;;;15.85;;
23044;SDS011;11690;51.716;23.066;2022-08-14T00:11:43;19.48;;;15.35;;
23044;SDS011;11690;51.716;23.066;2022-08-14T00:14:11;21.02;;;15.82;;
23044;SDS011;11690;51.716;23.066;2022-08-14T00:16:42;19.73;;;15.88;;
23044;SDS011;11690;51.716;23.066;2022-08-14T00:19:11;18.23;;;15.50;;
23044;SDS011;11690;51.716;23.066;2022-08-14T00:21:48;21.13;;;16.20;;
23044;SDS011;11690;51.716;23.066;2022-08-14T00:24:19;22.65;;;16.35;;
23044;SDS011;11690;51.716;23.066;2022-08-14T00:26:57;20.45;;;16.35;;
23044;SDS011;11690;51.716;23.066;2022-08-14T00:29:31;20.88;;;17.30;;
23044;SDS011;11690;51.716;23.066;2022-08-14T00:32:06;22.10;;;16.50;;
23044;SDS011;11690;51.716;23.066;2022-08-14T00:34:54;21.10;;;15.52;;
23044;SDS011;11690;51.716;23.066;2022-08-14T00:37:22;25.00;;;16.25;;
23044;SDS011;11690;51.716;23.066;2022-08-14T00:39:49;21.85;;;15.88;;
23044;SDS011;11690;51.716;23.066;2022-08-14T00:42:20;22.80;;;16.33;;
23044;SDS011;11690;51.716;23.066;2022-08-14T00:45:09;21.13;;;15.77;;
23044;SDS011;11690;51.716;23.066;2022-08-14T00:47:40;20.23;;;16.63;;
23044;SDS011;11690;51.716;23.066;2022-08-14T00:50:12;21.05;;;16.35;;
23044;SDS011;11690;51.716;23.066;2022-08-14T00:52:44;22.48;;;16.65;;
23044;SDS011;11690;51.716;23.066;2022-08-14T00:55:17;20.35;;;16.55;;
23044;SDS011;11690;51.716;23.066;2022-08-14T00:57:46;19.45;;;16.52;;
23044;SDS011;11690;51.716;23.066;2022-08-14T01:00:37;26.20;;;17.13;;
23044;SDS011;11690;51.716;23.066;2022-08-14T01:03:17;21.63;;;16.63;;
23044;SDS011;11690;51.716;23.066;2022-08-14T01:05:47;20.48;;;17.00;;
23044;SDS011;11690;51.716;23.066;2022-08-14T01:08:18;25.13;;;17.15;;
23044;SDS011;11690;51.716;23.066;2022-08-14T01:11:07;24.75;;;17.25;;
23044;SDS011;11690;51.716;23.066;2022-08-14T01:13:36;22.38;;;17.25;;
23044;SDS011;11690;51.716;23.066;2022-08-14T01:16:10;23.08;;;16.85;;
23044;SDS011;11690;51.716;23.066;2022-08-14T01:18:40;24.00;;;17.35;;
23044;SDS011;11690;51.716;23.066;2022-08-14T01:21:31;25.02;;;16.20;;
23044;SDS011;11690;51.716;23.066;2022-08-14T01:24:01;24.27;;;17.88;;
23044;SDS011;11690;51.716;23.066;2022-08-14T01:26:35;21.98;;;17.05;;
23044;SDS011;11690;51.716;23.066;2022-08-14T01:29:04;25.33;;;17.80;;
23044;SDS011;11690;51.716;23.066;2022-08-14T01:31:37;17.85;;;15.93;;
23044;SDS011;11690;51.716;23.066;2022-08-14T01:34:36;24.75;;;17.83;;
23044;SDS011;11690;51.716;23.066;2022-08-14T01:37:23;21.65;;;17.13;;
23044;SDS011;11690;51.716;23.066;2022-08-14T01:39:51;30.85;;;16.33;;
23044;SDS011;11690;51.716;23.066;2022-08-14T01:42:20;21.73;;;17.13;;
23044;SDS011;11690;51.716;23.066;2022-08-14T01:45:01;19.35;;;16.10;;
23044;SDS011;11690;51.716;23.066;2022-08-14T01:47:37;21.73;;;16.48;;
23044;SDS011;11690;51.716;23.066;2022-08-14T01:50:05;21.35;;;16.77;;
23044;SDS011;11690;51.716;23.066;2022-08-14T01:52:36;23.52;;;16.58;;
23044;SDS011;11690;51.716;23.066;2022-08-14T01:55:24;21.25;;;16.30;;
23044;SDS011;11690;51.716;23.066;2022-08-14T01:57:58;20.65;;;16.40;;
23044;SDS011;11690;51.716;23.066;2022-08-14T02:00:45;22.30;;;16.35;;
23044;SDS011;11690;51.716;23.066;2022-08-14T02:03:22;21.48;;;16.80;;
23044;SDS011;11690;51.716;23.066;2022-08-14T02:05:57;19.05;;;16.27;;
23044;SDS011;11690;51.716;23.066;2022-08-14T02:08:45;20.52;;;16.52;;
23044;SDS011;11690;51.716;23.066;2022-08-14T02:11:21;21.27;;;15.85;;
23044;SDS011;11690;51.716;23.066;2022-08-14T02:14:00;26.17;;;17.23;;
23044;SDS011;11690;51.716;23.066;2022-08-14T02:16:36;26.20;;;17.00;;
23044;SDS011;11690;51.716;23.066;2022-08-14T02:19:08;21.85;;;17.80;;
23044;SDS011;11690;51.716;23.066;2022-08-14T02:21:38;24.90;;;17.90;;
23044;SDS011;11690;51.716;23.066;2022-08-14T02:24:12;20.05;;;16.50;;
23044;SDS011;11690;51.716;23.066;2022-08-14T02:27:00;21.15;;;15.77;;
23044;SDS011;11690;51.716;23.066;2022-08-14T02:29:47;24.98;;;16.85;;
23044;SDS011;11690;51.716;23.066;2022-08-14T02:32:27;28.27;;;18.02;;
23044;SDS011;11690;51.716;23.066;2022-08-14T02:35:03;20.77;;;17.95;;
23044;SDS011;11690;51.716;23.066;2022-08-14T02:37:46;28.45;;;19.63;;
23044;SDS011;11690;51.716;23.066;2022-08-14T02:40:18;25.02;;;19.40;;
23044;SDS011;11690;51.716;23.066;2022-08-14T02:42:58;30.27;;;20.80;;
23044;SDS011;11690;51.716;23.066;2022-08-14T02:45:28;28.02;;;20.33;;
23044;SDS011;11690;51.716;23.066;2022-08-14T02:48:11;28.83;;;21.58;;
23044;SDS011;11690;51.716;23.066;2022-08-14T02:51:01;32.40;;;22.00;;
23044;SDS011;11690;51.716;23.066;2022-08-14T02:53:36;35.05;;;22.00;;
23044;SDS011;11690;51.716;23.066;2022-08-14T02:56:08;31.30;;;21.75;;
23044;SDS011;11690;51.716;23.066;2022-08-14T02:58:56;28.35;;;21.25;;
23044;SDS011;11690;51.716;23.066;2022-08-14T03:01:31;32.15;;;21.88;;
23044;SDS011;11690;51.716;23.066;2022-08-14T03:04:17;31.98;;;22.40;;
23044;SDS011;11690;51.716;23.066;2022-08-14T03:06:46;30.10;;;22.42;;
23044;SDS011;11690;51.716;23.066;2022-08-14T03:09:32;29.85;;;21.85;;
23044;SDS011;11690;51.716;23.066;2022-08-14T03:12:19;28.35;;;20.83;;
23044;SDS011;11690;51.716;23.066;2022-08-14T03:14:57;27.80;;;21.67;;
23044;SDS011;11690;51.716;23.066;2022-08-14T03:17:28;25.33;;;20.60;;
23044;SDS011;11690;51.716;23.066;2022-08-14T03:20:07;29.35;;;21.15;;
23044;SDS011;11690;51.716;23.066;2022-08-14T03:22:37;30.52;;;22.50;;
23044;SDS011;11690;51.716;23.066;2022-08-14T03:25:08;28.63;;;21.17;;
23044;SDS011;11690;51.716;23.066;2022-08-14T03:27:38;30.48;;;20.45;;
23044;SDS011;11690;51.716;23.066;2022-08-14T03:30:25;28.60;;;20.52;;
23044;SDS011;11690;51.716;23.066;2022-08-14T03:33:07;29.52;;;21.20;;
23044;SDS011;11690;51.716;23.066;2022-08-14T03:35:37;26.30;;;20.75;;
23044;SDS011;11690;51.716;23.066;2022-08-14T03:38:25;28.92;;;21.95;;
23044;SDS011;11690;51.716;23.066;2022-08-14T03:41:13;33.05;;;22.08;;
23044;SDS011;11690;51.716;23.066;2022-08-14T03:43:52;27.75;;;22.05;;
23044;SDS011;11690;51.716;23.066;2022-08-14T03:46:36;28.17;;;22.23;;
23044;SDS011;11690;51.716;23.066;2022-08-14T03:49:22;31.23;;;22.02;;
23044;SDS011;11690;51.716;23.066;2022-08-14T03:51:56;34.17;;;23.13;;
23044;SDS011;11690;51.716;23.066;2022-08-14T03:54:27;32.25;;;23.95;;
23044;SDS011;11690;51.716;23.066;2022-08-14T03:56:54;36.03;;;23.30;;
23044;SDS011;11690;51.716;23.066;2022-08-14T03:59:28;33.83;;;23.73;;
23044;SDS011;11690;51.716;23.066;2022-08-14T04:01:56;28.30;;;22.92;;
23044;SDS011;11690;51.716;23.066;2022-08-14T04:04:28;32.88;;;22.40;;
23044;SDS011;11690;51.716;23.066;2022-08-14T04:06:57;32.90;;;24.30;;
23044;SDS011;11690;51.716;23.066;2022-08-14T04:09:27;32.15;;;22.52;;
23044;SDS011;11690;51.716;23.066;2022-08-14T04:11:55;29.55;;;22.58;;
23044;SDS011;11690;51.716;23.066;2022-08-14T04:14:25;37.88;;;23.85;;
23044;SDS011;11690;51.716;23.066;2022-08-14T04:16:54;33.95;;;23.92;;
23044;SDS011;11690;51.716;23.066;2022-08-14T04:19:22;30.23;;;24.13;;
23044;SDS011;11690;51.716;23.066;2022-08-14T04:21:53;30.80;;;23.40;;
23044;SDS011;11690;51.716;23.066;2022-08-14T04:24:30;38.13;;;24.45;;
23044;SDS011;11690;51.716;23.066;2022-08-14T04:27:05;30.80;;;23.52;;
23044;SDS011;11690;51.716;23.066;2022-08-14T04:29:39;34.30;;;25.02;;
23044;SDS011;11690;51.716;23.066;2022-08-14T04:32:08;28.85;;;23.75;;
23044;SDS011;11690;51.716;23.066;2022-08-14T04:34:56;35.45;;;24.63;;
23044;SDS011;11690;51.716;23.066;2022-08-14T04:37:24;36.88;;;25.05;;
23044;SDS011;11690;51.716;23.066;2022-08-14T04:40:11;34.80;;;25.45;;
23044;SDS011;11690;51.716;23.066;2022-08-14T04:42:58;33.30;;;25.30;;
23044;SDS011;11690;51.716;23.066;2022-08-14T04:45:43;31.73;;;25.17;;
23044;SDS011;11690;51.716;23.066;2022-08-14T04:48:14;28.38;;;23.30;;
23044;SDS011;11690;51.716;23.066;2022-08-14T04:51:03;33.13;;;23.98;;
23044;SDS011;11690;51.716;23.066;2022-08-14T04:53:32;33.20;;;24.45;;
23044;SDS011;11690;51.716;23.066;2022-08-14T04:56:13;33.92;;;24.27;;
23044;SDS011;11690;51.716;23.066;2022-08-14T04:59:04;35.40;;;24.30;;
23044;SDS011;11690;51.716;23.066;2022-08-14T05:01:37;31.48;;;24.52;;
23044;SDS011;11690;51.716;23.066;2022-08-14T05:04:13;30.85;;;23.98;;
23044;SDS011;11690;51.716;23.066;2022-08-14T05:06:46;37.45;;;23.60;;
23044;SDS011;11690;51.716;23.066;2022-08-14T05:09:15;37.10;;;25.38;;
23044;SDS011;11690;51.716;23.066;2022-08-14T05:11:42;29.70;;;23.55;;
23044;SDS011;11690;51.716;23.066;2022-08-14T05:14:10;36.30;;;24.23;;
23044;SDS011;11690;51.716;23.066;2022-08-14T05:16:58;27.88;;;23.23;;
23044;SDS011;11690;51.716;23.066;2022-08-14T05:19:27;30.13;;;23.75;;
23044;SDS011;11690;51.716;23.066;2022-08-14T05:21:58;32.88;;;24.15;;
23044;SDS011;11690;51.716;23.066;2022-08-14T05:24:45;32.03;;;24.33;;
23044;SDS011;11690;51.716;23.066;2022-08-14T05:27:18;31.20;;;24.33;;
23044;SDS011;11690;51.716;23.066;2022-08-14T05:29:50;30.58;;;23.75;;
23044;SDS011;11690;51.716;23.066;2022-08-14T05:32:19;31.20;;;23.75;;
23044;SDS011;11690;51.716;23.066;2022-08-14T05:34:46;32.60;;;24.45;;
23044;SDS011;11690;51.716;23.066;2022-08-14T05:37:13;33.35;;;23.05;;
23044;SDS011;11690;51.716;23.066;2022-08-14T05:39:41;34.30;;;22.75;;
23044;SDS011;11690;51.716;23.066;2022-08-14T05:42:09;30.05;;;22.88;;
23044;SDS011;11690;51.716;23.066;2022-08-14T05:44:52;26.77;;;22.55;;
23044;SDS011;11690;51.716;23.066;2022-08-14T05:47:21;29.52;;;23.27;;
23044;SDS011;11690;51.716;23.066;2022-08-14T05:49:49;28.35;;;23.38;;
23044;SDS011;11690;51.716;23.066;2022-08-14T05:52:17;29.92;;;22.33;;
23044;SDS011;11690;51.716;23.066;2022-08-14T05:55:08;27.95;;;22.10;;
23044;SDS011;11690;51.716;23.066;2022-08-14T06:00:24;31.52;;;22.70;;
23044;SDS011;11690;51.716;23.066;2022-08-14T06:03:06;31.90;;;22.60;;
23044;SDS011;11690;51.716;23.066;2022-08-14T06:05:35;28.92;;;23.10;;
23044;SDS011;11690;51.716;23.066;2022-08-14T06:08:04;28.70;;;22.90;;
23044;SDS011;11690;51.716;23.066;2022-08-14T06:10:47;27.63;;;21.67;;
23044;SDS011;11690;51.716;23.066;2022-08-14T06:13:15;27.48;;;22.30;;
23044;SDS011;11690;51.716;23.066;2022-08-14T06:15:45;29.13;;;23.45;;
23044;SDS011;11690;51.716;23.066;2022-08-14T06:18:16;28.80;;;23.17;;
23044;SDS011;11690;51.716;23.066;2022-08-14T06:20:44;31.02;;;23.15;;
23044;SDS011;11690;51.716;23.066;2022-08-14T06:23:11;28.27;;;23.30;;
23044;SDS011;11690;51.716;23.066;2022-08-14T06:25:40;32.53;;;23.40;;
23044;SDS011;11690;51.716;23.066;2022-08-14T06:28:19;32.65;;;23.38;;
23044;SDS011;11690;51.716;23.066;2022-08-14T06:30:54;30.80;;;24.15;;
23044;SDS011;11690;51.716;23.066;2022-08-14T06:33:21;30.75;;;24.10;;
23044;SDS011;11690;51.716;23.066;2022-08-14T06:36:09;32.30;;;24.77;;
23044;SDS011;11690;51.716;23.066;2022-08-14T06:38:36;35.47;;;25.42;;
23044;SDS011;11690;51.716;23.066;2022-08-14T06:41:03;33.17;;;25.70;;
23044;SDS011;11690;51.716;23.066;2022-08-14T06:43:36;31.00;;;25.15;;
23044;SDS011;11690;51.716;23.066;2022-08-14T06:46:10;34.72;;;24.67;;
23044;SDS011;11690;51.716;23.066;2022-08-14T06:48:49;31.13;;;25.15;;
23044;SDS011;11690;51.716;23.066;2022-08-14T06:51:15;31.85;;;25.23;;
23044;SDS011;11690;51.716;23.066;2022-08-14T06:53:42;31.75;;;24.40;;
23044;SDS011;11690;51.716;23.066;2022-08-14T06:56:12;30.45;;;24.80;;
23044;SDS011;11690;51.716;23.066;2022-08-14T06:58:39;29.05;;;24.50;;
23044;SDS011;11690;51.716;23.066;2022-08-14T07:01:08;33.13;;;25.50;;
23044;SDS011;11690;51.716;23.066;2022-08-14T07:03:55;33.47;;;25.08;;
23044;SDS011;11690;51.716;23.066;2022-08-14T07:06:50;36.53;;;25.02;;
23044;SDS011;11690;51.716;23.066;2022-08-14T07:09:26;34.05;;;25.10;;
23044;SDS011;11690;51.716;23.066;2022-08-14T07:12:09;36.70;;;25.33;;
23044;SDS011;11690;51.716;23.066;2022-08-14T07:14:56;39.30;;;26.95;;
23044;SDS011;11690;51.716;23.066;2022-08-14T07:17:26;32.88;;;27.10;;
23044;SDS011;11690;51.716;23.066;2022-08-14T07:19:57;40.03;;;28.75;;
23044;SDS011;11690;51.716;23.066;2022-08-14T07:22:25;41.25;;;26.85;;
23044;SDS011;11690;51.716;23.066;2022-08-14T07:24:58;37.85;;;24.60;;
23044;SDS011;11690;51.716;23.066;2022-08-14T07:27:25;32.20;;;24.80;;
23044;SDS011;11690;51.716;23.066;2022-08-14T07:30:00;30.67;;;24.60;;
23044;SDS011;11690;51.716;23.066;2022-08-14T07:32:29;33.58;;;25.50;;
23044;SDS011;11690;51.716;23.066;2022-08-14T07:34:59;36.50;;;25.33;;
23044;SDS011;11690;51.716;23.066;2022-08-14T07:37:27;32.55;;;25.13;;
23044;SDS011;11690;51.716;23.066;2022-08-14T07:39:54;35.17;;;25.52;;
23044;SDS011;11690;51.716;23.066;2022-08-14T07:42:21;31.88;;;25.75;;
23044;SDS011;11690;51.716;23.066;2022-08-14T07:44:49;40.05;;;25.13;;
23044;SDS011;11690;51.716;23.066;2022-08-14T07:47:16;33.78;;;25.70;;
23044;SDS011;11690;51.716;23.066;2022-08-14T07:49:51;31.42;;;24.42;;
23044;SDS011;11690;51.716;23.066;2022-08-14T07:52:26;31.40;;;24.75;;
23044;SDS011;11690;51.716;23.066;2022-08-14T07:54:57;31.92;;;24.10;;
23044;SDS011;11690;51.716;23.066;2022-08-14T07:57:25;34.20;;;25.48;;
23044;SDS011;11690;51.716;23.066;2022-08-14T07:59:53;33.08;;;24.08;;
23044;SDS011;11690;51.716;23.066;2022-08-14T08:02:20;31.88;;;24.15;;
23044;SDS011;11690;51.716;23.066;2022-08-14T08:04:49;30.30;;;24.85;;
23044;SDS011;11690;51.716;23.066;2022-08-14T08:07:21;29.23;;;23.63;;
23044;SDS011;11690;51.716;23.066;2022-08-14T08:09:49;30.13;;;24.13;;
23044;SDS011;11690;51.716;23.066;2022-08-14T08:12:20;30.70;;;22.95;;
23044;SDS011;11690;51.716;23.066;2022-08-14T08:14:56;31.88;;;23.33;;
23044;SDS011;11690;51.716;23.066;2022-08-14T08:17:36;28.27;;;23.13;;
23044;SDS011;11690;51.716;23.066;2022-08-14T08:20:23;27.33;;;22.23;;
23044;SDS011;11690;51.716;23.066;2022-08-14T08:22:53;28.40;;;22.85;;
23044;SDS011;11690;51.716;23.066;2022-08-14T08:25:33;30.33;;;23.52;;
23044;SDS011;11690;51.716;23.066;2022-08-14T08:30:54;26.27;;;23.02;;
23044;SDS011;11690;51.716;23.066;2022-08-14T08:33:28;27.40;;;23.13;;
23044;SDS011;11690;51.716;23.066;2022-08-14T08:35:59;33.10;;;22.90;;
23044;SDS011;11690;51.716;23.066;2022-08-14T08:38:27;28.83;;;23.10;;
23044;SDS011;11690;51.716;23.066;2022-08-14T08:41:14;25.30;;;21.70;;
23044;SDS011;11690;51.716;23.066;2022-08-14T08:43:42;34.92;;;22.10;;
23044;SDS011;11690;51.716;23.066;2022-08-14T08:46:13;27.13;;;21.60;;
23044;SDS011;11690;51.716;23.066;2022-08-14T08:48:48;26.27;;;21.73;;
23044;SDS011;11690;51.716;23.066;2022-08-14T08:51:29;29.90;;;22.52;;
23044;SDS011;11690;51.716;23.066;2022-08-14T08:56:45;33.60;;;21.92;;
23044;SDS011;11690;51.716;23.066;2022-08-14T09:02:00;26.85;;;22.23;;
23044;SDS011;11690;51.716;23.066;2022-08-14T09:04:35;29.15;;;21.42;;
23044;SDS011;11690;51.716;23.066;2022-08-14T09:07:18;27.77;;;22.02;;
23044;SDS011;11690;51.716;23.066;2022-08-14T09:09:52;31.17;;;22.25;;
23044;SDS011;11690;51.716;23.066;2022-08-14T09:12:29;28.08;;;21.80;;
23044;SDS011;11690;51.716;23.066;2022-08-14T09:14:59;31.83;;;22.02;;
23044;SDS011;11690;51.716;23.066;2022-08-14T09:17:41;32.03;;;22.05;;
23044;SDS011;11690;51.716;23.066;2022-08-14T09:20:09;28.85;;;21.30;;
23044;SDS011;11690;51.716;23.066;2022-08-14T09:22:38;26.85;;;21.05;;
23044;SDS011;11690;51.716;23.066;2022-08-14T09:25:15;29.33;;;22.05;;
23044;SDS011;11690;51.716;23.066;2022-08-14T09:28:03;27.15;;;22.73;;
23044;SDS011;11690;51.716;23.066;2022-08-14T09:30:31;29.45;;;21.83;;
23044;SDS011;11690;51.716;23.066;2022-08-14T09:45:14;27.02;;;21.98;;
23044;SDS011;11690;51.716;23.066;2022-08-14T09:47:53;27.40;;;20.95;;
23044;SDS011;11690;51.716;23.066;2022-08-14T09:50:29;29.70;;;21.45;;
23044;SDS011;11690;51.716;23.066;2022-08-14T09:53:10;24.83;;;21.25;;
23044;SDS011;11690;51.716;23.066;2022-08-14T09:55:43;27.67;;;21.58;;
23044;SDS011;11690;51.716;23.066;2022-08-14T10:00:49;30.92;;;24.05;;
23044;SDS011;11690;51.716;23.066;2022-08-14T10:03:33;26.15;;;23.35;;
23044;SDS011;11690;51.716;23.066;2022-08-14T10:06:08;29.45;;;22.75;;
23044;SDS011;11690;51.716;23.066;2022-08-14T10:08:43;26.88;;;21.73;;
23044;SDS011;11690;51.716;23.066;2022-08-14T10:11:24;26.90;;;21.17;;
23044;SDS011;11690;51.716;23.066;2022-08-14T10:14:17;29.27;;;21.20;;
23044;SDS011;11690;51.716;23.066;2022-08-14T10:17:02;28.30;;;22.02;;
23044;SDS011;11690;51.716;23.066;2022-08-14T10:19:33;29.42;;;20.02;;
23044;SDS011;11690;51.716;23.066;2022-08-14T10:22:06;24.70;;;21.05;;
23044;SDS011;11690;51.716;23.066;2022-08-14T10:24:56;30.50;;;20.08;;
23044;SDS011;11690;51.716;23.066;2022-08-14T10:27:26;26.80;;;21.90;;
23044;SDS011;11690;51.716;23.066;2022-08-14T10:29:55;25.52;;;20.88;;
23044;SDS011;11690;51.716;23.066;2022-08-14T10:32:27;26.15;;;21.30;;
23044;SDS011;11690;51.716;23.066;2022-08-14T10:35:08;23.30;;;20.77;;
23044;SDS011;11690;51.716;23.066;2022-08-14T10:37:42;26.92;;;20.95;;
23044;SDS011;11690;51.716;23.066;2022-08-14T10:40:13;29.23;;;20.50;;
23044;SDS011;11690;51.716;23.066;2022-08-14T10:43:01;24.45;;;20.48;;
23044;SDS011;11690;51.716;23.066;2022-08-14T10:45:30;22.83;;;20.25;;
23044;SDS011;11690;51.716;23.066;2022-08-14T10:48:01;28.33;;;20.13;;
23044;SDS011;11690;51.716;23.066;2022-08-14T10:50:35;24.17;;;21.15;;
23044;SDS011;11690;51.716;23.066;2022-08-14T10:53:07;24.83;;;20.42;;
23044;SDS011;11690;51.716;23.066;2022-08-14T10:55:36;32.05;;;22.60;;
23044;SDS011;11690;51.716;23.066;2022-08-14T10:58:11;25.45;;;22.25;;
23044;SDS011;11690;51.716;23.066;2022-08-14T11:00:41;24.38;;;21.48;;
23044;SDS011;11690;51.716;23.066;2022-08-14T11:03:22;29.50;;;21.17;;
23044;SDS011;11690;51.716;23.066;2022-08-14T11:06:17;25.65;;;21.17;;
23044;SDS011;11690;51.716;23.066;2022-08-14T11:08:50;34.15;;;23.15;;
23044;SDS011;11690;51.716;23.066;2022-08-14T11:11:20;26.50;;;22.20;;
23044;SDS011;11690;51.716;23.066;2022-08-14T11:13:48;25.17;;;21.60;;
23044;SDS011;11690;51.716;23.066;2022-08-14T11:16:16;25.30;;;20.33;;
23044;SDS011;11690;51.716;23.066;2022-08-14T11:18:46;26.30;;;22.30;;
23044;SDS011;11690;51.716;23.066;2022-08-14T11:21:17;24.85;;;22.05;;
23044;SDS011;11690;51.716;23.066;2022-08-14T11:23:47;31.30;;;21.33;;
23044;SDS011;11690;51.716;23.066;2022-08-14T11:26:19;24.17;;;18.67;;
23044;SDS011;11690;51.716;23.066;2022-08-14T11:28:48;26.38;;;20.33;;
23044;SDS011;11690;51.716;23.066;2022-08-14T11:31:22;21.70;;;18.98;;
23044;SDS011;11690;51.716;23.066;2022-08-14T11:33:51;22.60;;;17.80;;
23044;SDS011;11690;51.716;23.066;2022-08-14T11:36:24;23.25;;;17.95;;
23044;SDS011;11690;51.716;23.066;2022-08-14T11:39:17;20.42;;;18.20;;
23044;SDS011;11690;51.716;23.066;2022-08-14T11:42:04;23.48;;;18.85;;
23044;SDS011;11690;51.716;23.066;2022-08-14T11:45:01;23.25;;;19.88;;
23044;SDS011;11690;51.716;23.066;2022-08-14T11:47:37;21.50;;;19.23;;
23044;SDS011;11690;51.716;23.066;2022-08-14T11:50:26;20.05;;;17.75;;
23044;SDS011;11690;51.716;23.066;2022-08-14T11:53:04;28.58;;;18.40;;
23044;SDS011;11690;51.716;23.066;2022-08-14T11:55:34;23.77;;;17.05;;
23044;SDS011;11690;51.716;23.066;2022-08-14T11:58:09;23.05;;;17.52;;
23044;SDS011;11690;51.716;23.066;2022-08-14T12:00:50;21.52;;;17.20;;
23044;SDS011;11690;51.716;23.066;2022-08-14T12:03:19;22.08;;;16.67;;
23044;SDS011;11690;51.716;23.066;2022-08-14T12:06:08;20.27;;;15.55;;
23044;SDS011;11690;51.716;23.066;2022-08-14T12:08:56;21.52;;;15.80;;
23044;SDS011;11690;51.716;23.066;2022-08-14T12:11:26;22.15;;;15.93;;
23044;SDS011;11690;51.716;23.066;2022-08-14T12:14:09;19.70;;;15.32;;
23044;SDS011;11690;51.716;23.066;2022-08-14T12:16:59;21.05;;;14.55;;
23044;SDS011;11690;51.716;23.066;2022-08-14T12:22:32;23.33;;;13.98;;
23044;SDS011;11690;51.716;23.066;2022-08-14T12:25:12;19.75;;;14.93;;
23044;SDS011;11690;51.716;23.066;2022-08-14T12:33:22;27.33;;;13.85;;
23044;SDS011;11690;51.716;23.066;2022-08-14T12:36:05;17.23;;;13.88;;
23044;SDS011;11690;51.716;23.066;2022-08-14T12:41:03;18.50;;;13.63;;
23044;SDS011;11690;51.716;23.066;2022-08-14T12:43:48;17.75;;;12.48;;
23044;SDS011;11690;51.716;23.066;2022-08-14T12:46:29;19.63;;;12.40;;
23044;SDS011;11690;51.716;23.066;2022-08-14T12:49:02;23.35;;;12.73;;
23044;SDS011;11690;51.716;23.066;2022-08-14T12:51:36;16.52;;;12.52;;
23044;SDS011;11690;51.716;23.066;2022-08-14T12:54:13;22.30;;;13.45;;
23044;SDS011;11690;51.716;23.066;2022-08-14T12:57:04;18.50;;;11.32;;
23044;SDS011;11690;51.716;23.066;2022-08-14T12:59:44;15.73;;;12.00;;
23044;SDS011;11690;51.716;23.066;2022-08-14T13:02:19;16.60;;;13.20;;
23044;SDS011;11690;51.716;23.066;2022-08-14T13:04:52;17.63;;;12.52;;
23044;SDS011;11690;51.716;23.066;2022-08-14T13:07:27;16.75;;;12.52;;
23044;SDS011;11690;51.716;23.066;2022-08-14T13:09:58;15.68;;;11.07;;
23044;SDS011;11690;51.716;23.066;2022-08-14T13:12:26;15.60;;;12.82;;
23044;SDS011;11690;51.716;23.066;2022-08-14T13:15:03;17.85;;;12.48;;
23044;SDS011;11690;51.716;23.066;2022-08-14T13:17:39;18.38;;;12.68;;
23044;SDS011;11690;51.716;23.066;2022-08-14T13:20:06;16.23;;;12.25;;
23044;SDS011;11690;51.716;23.066;2022-08-14T13:22:50;16.95;;;12.88;;
23044;SDS011;11690;51.716;23.066;2022-08-14T13:25:18;19.98;;;13.13;;
23044;SDS011;11690;51.716;23.066;2022-08-14T13:27:53;19.23;;;13.18;;
23044;SDS011;11690;51.716;23.066;2022-08-14T13:30:23;20.63;;;12.55;;
23044;SDS011;11690;51.716;23.066;2022-08-14T13:32:52;16.88;;;12.55;;
23044;SDS011;11690;51.716;23.066;2022-08-14T13:35:24;23.20;;;13.60;;
23044;SDS011;11690;51.716;23.066;2022-08-14T13:37:51;20.35;;;12.27;;
23044;SDS011;11690;51.716;23.066;2022-08-14T13:40:20;16.58;;;12.07;;
23044;SDS011;11690;51.716;23.066;2022-08-14T13:42:52;14.77;;;11.95;;
23044;SDS011;11690;51.716;23.066;2022-08-14T13:45:23;15.25;;;11.88;;
23044;SDS011;11690;51.716;23.066;2022-08-14T13:48:12;18.35;;;12.60;;
23044;SDS011;11690;51.716;23.066;2022-08-14T13:50:58;17.45;;;13.20;;
23044;SDS011;11690;51.716;23.066;2022-08-14T13:53:27;19.05;;;13.15;;
23044;SDS011;11690;51.716;23.066;2022-08-14T13:55:59;20.55;;;13.15;;
23044;SDS011;11690;51.716;23.066;2022-08-14T13:58:27;15.70;;;12.68;;
23044;SDS011;11690;51.716;23.066;2022-08-14T14:01:01;19.85;;;12.25;;
23044;SDS011;11690;51.716;23.066;2022-08-14T14:03:32;14.82;;;13.25;;
23044;SDS011;11690;51.716;23.066;2022-08-14T14:06:01;17.40;;;12.73;;
23044;SDS011;11690;51.716;23.066;2022-08-14T14:08:29;17.25;;;13.02;;
23044;SDS011;11690;51.716;23.066;2022-08-14T14:11:14;16.38;;;12.70;;
23044;SDS011;11690;51.716;23.066;2022-08-14T14:13:44;13.95;;;12.50;;
23044;SDS011;11690;51.716;23.066;2022-08-14T14:16:12;17.02;;;12.90;;
23044;SDS011;11690;51.716;23.066;2022-08-14T14:18:53;21.02;;;12.98;;
23044;SDS011;11690;51.716;23.066;2022-08-14T14:21:35;19.27;;;13.05;;
23044;SDS011;11690;51.716;23.066;2022-08-14T14:24:03;18.13;;;12.82;;
23044;SDS011;11690;51.716;23.066;2022-08-14T14:26:31;19.10;;;13.07;;
23044;SDS011;11690;51.716;23.066;2022-08-14T14:29:01;18.58;;;11.88;;
23044;SDS011;11690;51.716;23.066;2022-08-14T14:31:29;15.65;;;12.27;;
23044;SDS011;11690;51.716;23.066;2022-08-14T14:33:59;19.35;;;11.40;;
23044;SDS011;11690;51.716;23.066;2022-08-14T14:36:49;14.32;;;11.38;;
23044;SDS011;11690;51.716;23.066;2022-08-14T14:39:24;19.15;;;11.98;;
23044;SDS011;11690;51.716;23.066;2022-08-14T14:41:55;21.40;;;12.32;;
23044;SDS011;11690;51.716;23.066;2022-08-14T14:44:24;17.88;;;12.18;;
23044;SDS011;11690;51.716;23.066;2022-08-14T14:46:52;15.15;;;11.48;;
23044;SDS011;11690;51.716;23.066;2022-08-14T14:49:20;15.30;;;11.75;;
23044;SDS011;11690;51.716;23.066;2022-08-14T14:52:08;15.20;;;11.98;;
23044;SDS011;11690;51.716;23.066;2022-08-14T14:54:52;15.13;;;12.20;;
23044;SDS011;11690;51.716;23.066;2022-08-14T14:57:19;16.67;;;11.93;;
23044;SDS011;11690;51.716;23.066;2022-08-14T14:59:46;17.05;;;12.73;;
23044;SDS011;11690;51.716;23.066;2022-08-14T15:02:23;15.60;;;12.85;;
23044;SDS011;11690;51.716;23.066;2022-08-14T15:04:55;16.40;;;12.95;;
23044;SDS011;11690;51.716;23.066;2022-08-14T15:07:23;16.63;;;12.30;;
23044;SDS011;11690;51.716;23.066;2022-08-14T15:09:49;17.52;;;12.30;;
23044;SDS011;11690;51.716;23.066;2022-08-14T15:12:17;17.15;;;12.57;;
23044;SDS011;11690;51.716;23.066;2022-08-14T15:15:04;19.13;;;12.27;;
23044;SDS011;11690;51.716;23.066;2022-08-14T15:17:35;19.80;;;13.32;;
23044;SDS011;11690;51.716;23.066;2022-08-14T15:20:11;16.63;;;12.32;;
23044;SDS011;11690;51.716;23.066;2022-08-14T15:22:55;18.73;;;12.63;;
23044;SDS011;11690;51.716;23.066;2022-08-14T15:25:22;19.50;;;12.63;;
23044;SDS011;11690;51.716;23.066;2022-08-14T15:27:49;17.80;;;13.55;;
23044;SDS011;11690;51.716;23.066;2022-08-14T15:30:20;21.08;;;13.35;;